sensor_id;sensor_type;location;lat;lon;timestamp;pressure;altitude;pressure_sealevel;temperature
30001;BMP280;16845;48.670;9.000;2024-01-15T00:01:27;94403.06;;;0.49
30001;BMP280;16845;48.670;9.000;2024-01-15T00:03:54;94400.56;;;0.50
30001;BMP280;16845;48.670;9.000;2024-01-15T00:06:21;94394.72;;;0.62
30001;BMP280;16845;48.670;9.000;2024-01-15T00:08:49;94393.97;;;0.57
30001;BMP280;16845;48.670;9.000;2024-01-15T00:11:15;94394.84;;;0.48
30001;BMP280;16845;48.670;9.000;2024-01-15T00:13:42;94389.97;;;0.41
30001;BMP280;16845;48.670;9.000;2024-01-15T00:16:08;94388.34;;;0.41
30001;BMP280;16845;48.670;9.000;2024-01-15T00:18:35;94389.91;;;0.51
30001;BMP280;16845;48.670;9.000;2024-01-15T00:21:02;94384.31;;;0.31
30001;BMP280;16845;48.670;9.000;2024-01-15T00:23:28;94390.66;;;0.55
30001;BMP280;16845;48.670;9.000;2024-01-15T00:25:56;94383.97;;;0.66
30001;BMP280;16845;48.670;9.000;2024-01-15T00:28:23;94385.69;;;0.61
30001;BMP280;16845;48.670;9.000;2024-01-15T00:30:49;94385.03;;;0.41
30001;BMP280;16845;48.670;9.000;2024-01-15T00:33:16;94381.66;;;0.51
30001;BMP280;16845;48.670;9.000;2024-01-15T00:35:43;94389.03;;;0.54
30001;BMP280;16845;48.670;9.000;2024-01-15T00:38:09;94387.19;;;0.72
30001;BMP280;16845;48.670;9.000;2024-01-15T00:40:36;94382.97;;;0.85
30001;BMP280;16845;48.670;9.000;2024-01-15T00:43:04;94385.34;;;0.91
30001;BMP280;16845;48.670;9.000;2024-01-15T00:45:30;94382.78;;;1.00
30001;BMP280;16845;48.670;9.000;2024-01-15T00:47:57;94384.59;;;0.86
30001;BMP280;16845;48.670;9.000;2024-01-15T00:50:24;94387.38;;;0.54
30001;BMP280;16845;48.670;9.000;2024-01-15T00:52:50;94380.00;;;0.53
30001;BMP280;16845;48.670;9.000;2024-01-15T00:55:17;94383.44;;;0.34
30001;BMP280;16845;48.670;9.000;2024-01-15T00:57:43;94388.50;;;1.03
30001;BMP280;16845;48.670;9.000;2024-01-15T01:00:12;94384.00;;;0.63
30001;BMP280;16845;48.670;9.000;2024-01-15T01:02:39;94381.31;;;0.84
30001;BMP280;16845;48.670;9.000;2024-01-15T01:05:06;94392.72;;;0.95
30001;BMP280;16845;48.670;9.000;2024-01-15T01:07:33;94392.41;;;1.21
30001;BMP280;16845;48.670;9.000;2024-01-15T01:10:00;94397.50;;;1.07
30001;BMP280;16845;48.670;9.000;2024-01-15T01:12:26;94388.72;;;0.84
30001;BMP280;16845;48.670;9.000;2024-01-15T01:14:53;94393.63;;;0.87
30001;BMP280;16845;48.670;9.000;2024-01-15T01:17:21;94391.88;;;0.96
30001;BMP280;16845;48.670;9.000;2024-01-15T01:19:49;94387.63;;;1.07
30001;BMP280;16845;48.670;9.000;2024-01-15T01:22:15;94383.59;;;1.00
30001;BMP280;16845;48.670;9.000;2024-01-15T01:24:42;94384.53;;;0.92
30001;BMP280;16845;48.670;9.000;2024-01-15T01:27:09;94386.63;;;1.23
30001;BMP280;16845;48.670;9.000;2024-01-15T01:29:35;94380.19;;;1.10
30001;BMP280;16845;48.670;9.000;2024-01-15T01:32:02;94384.66;;;0.80
30001;BMP280;16845;48.670;9.000;2024-01-15T01:34:29;94383.59;;;1.00
30001;BMP280;16845;48.670;9.000;2024-01-15T01:37:00;94380.84;;;1.23
30001;BMP280;16845;48.670;9.000;2024-01-15T01:39:26;94380.25;;;1.04
30001;BMP280;16845;48.670;9.000;2024-01-15T01:41:53;94382.69;;;1.07
30001;BMP280;16845;48.670;9.000;2024-01-15T01:44:19;94381.31;;;0.84
30001;BMP280;16845;48.670;9.000;2024-01-15T01:46:46;94383.47;;;1.14
30001;BMP280;16845;48.670;9.000;2024-01-15T01:49:12;94380.44;;;0.89
30001;BMP280;16845;48.670;9.000;2024-01-15T01:51:40;94387.06;;;0.86
30001;BMP280;16845;48.670;9.000;2024-01-15T01:54:08;94390.72;;;1.24
30001;BMP280;16845;48.670;9.000;2024-01-15T01:56:35;94382.03;;;1.60
30001;BMP280;16845;48.670;9.000;2024-01-15T01:59:02;94391.63;;;1.17
30001;BMP280;16845;48.670;9.000;2024-01-15T02:01:30;94387.38;;;1.30
30001;BMP280;16845;48.670;9.000;2024-01-15T02:03:57;94377.81;;;1.03
30001;BMP280;16845;48.670;9.000;2024-01-15T02:06:24;94376.38;;;0.84
30001;BMP280;16845;48.670;9.000;2024-01-15T02:08:52;94383.41;;;1.17
30001;BMP280;16845;48.670;9.000;2024-01-15T02:11:19;94378.91;;;1.49
30001;BMP280;16845;48.670;9.000;2024-01-15T02:13:46;94384.97;;;1.24
30001;BMP280;16845;48.670;9.000;2024-01-15T02:16:12;94379.91;;;1.34
30001;BMP280;16845;48.670;9.000;2024-01-15T02:18:40;94372.34;;;1.45
30001;BMP280;16845;48.670;9.000;2024-01-15T02:21:07;94369.09;;;1.41
30001;BMP280;16845;48.670;9.000;2024-01-15T02:23:35;94369.03;;;1.46
30001;BMP280;16845;48.670;9.000;2024-01-15T02:26:01;94376.00;;;1.17
30001;BMP280;16845;48.670;9.000;2024-01-15T02:28:28;94368.06;;;1.57
30001;BMP280;16845;48.670;9.000;2024-01-15T02:30:54;94363.13;;;1.56
30001;BMP280;16845;48.670;9.000;2024-01-15T02:33:21;94361.22;;;1.11
30001;BMP280;16845;48.670;9.000;2024-01-15T02:35:48;94363.00;;;1.03
30001;BMP280;16845;48.670;9.000;2024-01-15T02:38:14;94360.34;;;1.19
30001;BMP280;16845;48.670;9.000;2024-01-15T02:40:43;94357.19;;;1.05
30001;BMP280;16845;48.670;9.000;2024-01-15T02:43:10;94365.66;;;0.86
30001;BMP280;16845;48.670;9.000;2024-01-15T02:45:37;94368.00;;;0.97
30001;BMP280;16845;48.670;9.000;2024-01-15T02:48:04;94358.94;;;0.96
30001;BMP280;16845;48.670;9.000;2024-01-15T02:50:30;94357.94;;;1.12
30001;BMP280;16845;48.670;9.000;2024-01-15T02:52:57;94357.81;;;1.21
30001;BMP280;16845;48.670;9.000;2024-01-15T02:55:24;94357.94;;;1.12
30001;BMP280;16845;48.670;9.000;2024-01-15T02:57:51;94356.28;;;1.11
30001;BMP280;16845;48.670;9.000;2024-01-15T03:00:18;94351.44;;;1.05
30001;BMP280;16845;48.670;9.000;2024-01-15T03:02:45;94366.03;;;1.23
30001;BMP280;16845;48.670;9.000;2024-01-15T03:05:14;94346.50;;;1.05
30001;BMP280;16845;48.670;9.000;2024-01-15T03:07:41;94356.19;;;1.20
30001;BMP280;16845;48.670;9.000;2024-01-15T03:10:08;94352.53;;;0.83
30001;BMP280;16845;48.670;9.000;2024-01-15T03:12:35;94350.75;;;0.92
30001;BMP280;16845;48.670;9.000;2024-01-15T03:15:04;94354.84;;;0.95
30001;BMP280;16845;48.670;9.000;2024-01-15T03:17:30;94364.50;;;1.13
30001;BMP280;16845;48.670;9.000;2024-01-15T03:19:57;94355.59;;;1.03
30001;BMP280;16845;48.670;9.000;2024-01-15T03:22:24;94350.69;;;0.98
30001;BMP280;16845;48.670;9.000;2024-01-15T03:24:50;94353.38;;;0.79
30001;BMP280;16845;48.670;9.000;2024-01-15T03:27:17;94346.66;;;0.90
30001;BMP280;16845;48.670;9.000;2024-01-15T03:29:43;94344.09;;;1.00
30001;BMP280;16845;48.670;9.000;2024-01-15T03:32:11;94342.44;;;0.99
30001;BMP280;16845;48.670;9.000;2024-01-15T03:34:38;94341.50;;;1.08
30001;BMP280;16845;48.670;9.000;2024-01-15T03:37:05;94335.03;;;0.98
30001;BMP280;16845;48.670;9.000;2024-01-15T03:39:31;94320.84;;;1.12
30001;BMP280;16845;48.670;9.000;2024-01-15T03:41:58;94335.09;;;0.95
30001;BMP280;16845;48.670;9.000;2024-01-15T03:44:24;94335.88;;;0.95
30001;BMP280;16845;48.670;9.000;2024-01-15T03:46:51;94336.72;;;0.96
30001;BMP280;16845;48.670;9.000;2024-01-15T03:49:19;94313.72;;;0.91
30001;BMP280;16845;48.670;9.000;2024-01-15T03:51:46;94333.75;;;0.67
30001;BMP280;16845;48.670;9.000;2024-01-15T03:54:12;94330.06;;;1.01
30001;BMP280;16845;48.670;9.000;2024-01-15T03:56:39;94327.78;;;0.87
30001;BMP280;16845;48.670;9.000;2024-01-15T03:59:05;94329.50;;;0.78
30001;BMP280;16845;48.670;9.000;2024-01-15T04:01:32;94333.09;;;1.22
30001;BMP280;16845;48.670;9.000;2024-01-15T04:03:58;94328.63;;;0.85
30001;BMP280;16845;48.670;9.000;2024-01-15T04:06:27;94339.19;;;0.96
30001;BMP280;16845;48.670;9.000;2024-01-15T04:08:53;94314.69;;;0.79
30001;BMP280;16845;48.670;9.000;2024-01-15T04:11:20;94320.97;;;1.04
30001;BMP280;16845;48.670;9.000;2024-01-15T04:13:46;94317.06;;;0.87
30001;BMP280;16845;48.670;9.000;2024-01-15T04:16:13;94314.63;;;0.84
30001;BMP280;16845;48.670;9.000;2024-01-15T04:18:39;94318.69;;;0.88
30001;BMP280;16845;48.670;9.000;2024-01-15T04:21:06;94301.88;;;1.17
30001;BMP280;16845;48.670;9.000;2024-01-15T04:23:34;94315.91;;;1.13
30001;BMP280;16845;48.670;9.000;2024-01-15T04:26:00;94314.81;;;1.34
30001;BMP280;16845;48.670;9.000;2024-01-15T04:28:27;94319.56;;;1.46
30001;BMP280;16845;48.670;9.000;2024-01-15T04:30:53;94319.19;;;1.73
30001;BMP280;16845;48.670;9.000;2024-01-15T04:33:20;94312.09;;;1.52
30001;BMP280;16845;48.670;9.000;2024-01-15T04:35:47;94321.94;;;1.55
30001;BMP280;16845;48.670;9.000;2024-01-15T04:38:13;94328.06;;;1.28
30001;BMP280;16845;48.670;9.000;2024-01-15T04:40:41;94324.81;;;1.25
30001;BMP280;16845;48.670;9.000;2024-01-15T04:43:08;94315.97;;;1.09
30001;BMP280;16845;48.670;9.000;2024-01-15T04:45:34;94325.75;;;1.18
30001;BMP280;16845;48.670;9.000;2024-01-15T04:48:01;94318.38;;;1.12
30001;BMP280;16845;48.670;9.000;2024-01-15T04:50:28;94329.88;;;1.16
30001;BMP280;16845;48.670;9.000;2024-01-15T04:52:54;94332.50;;;1.04
30001;BMP280;16845;48.670;9.000;2024-01-15T04:55:21;94334.84;;;1.13
30001;BMP280;16845;48.670;9.000;2024-01-15T04:57:49;94322.69;;;0.99
30001;BMP280;16845;48.670;9.000;2024-01-15T05:00:16;94325.47;;;1.39
30001;BMP280;16845;48.670;9.000;2024-01-15T05:02:43;94320.97;;;1.65
30001;BMP280;16845;48.670;9.000;2024-01-15T05:05:10;94324.00;;;1.26
30001;BMP280;16845;48.670;9.000;2024-01-15T05:07:36;94325.97;;;1.59
30001;BMP280;16845;48.670;9.000;2024-01-15T05:10:03;94326.94;;;1.52
30001;BMP280;16845;48.670;9.000;2024-01-15T05:12:30;94318.84;;;1.39
30001;BMP280;16845;48.670;9.000;2024-01-15T05:14:58;94324.56;;;1.43
30001;BMP280;16845;48.670;9.000;2024-01-15T05:17:24;94324.06;;;1.20
30001;BMP280;16845;48.670;9.000;2024-01-15T05:19:51;94326.09;;;1.51
30001;BMP280;16845;48.670;9.000;2024-01-15T05:22:18;94333.34;;;1.03
30001;BMP280;16845;48.670;9.000;2024-01-15T05:24:44;94318.38;;;1.15
30001;BMP280;16845;48.670;9.000;2024-01-15T05:27:11;94317.75;;;0.98
30001;BMP280;16845;48.670;9.000;2024-01-15T05:29:37;94317.81;;;1.54
30001;BMP280;16845;48.670;9.000;2024-01-15T05:32:05;94318.38;;;1.15
30001;BMP280;16845;48.670;9.000;2024-01-15T05:34:32;94318.38;;;1.12
30001;BMP280;16845;48.670;9.000;2024-01-15T05:36:59;94315.84;;;1.19
30001;BMP280;16845;48.670;9.000;2024-01-15T05:39:26;94317.53;;;1.14
30001;BMP280;16845;48.670;9.000;2024-01-15T05:41:52;94302.16;;;1.55
30001;BMP280;16845;48.670;9.000;2024-01-15T05:44:19;94299.50;;;1.08
30001;BMP280;16845;48.670;9.000;2024-01-15T05:46:45;94295.25;;;1.17
30001;BMP280;16845;48.670;9.000;2024-01-15T05:49:14;94289.00;;;0.91
30001;BMP280;16845;48.670;9.000;2024-01-15T05:51:40;94283.78;;;1.12
30001;BMP280;16845;48.670;9.000;2024-01-15T05:54:07;94296.66;;;0.71
30001;BMP280;16845;48.670;9.000;2024-01-15T05:56:33;94297.19;;;0.96
30001;BMP280;16845;48.670;9.000;2024-01-15T05:59:00;94293.72;;;1.07
30001;BMP280;16845;48.670;9.000;2024-01-15T06:01:26;94291.31;;;1.04
30001;BMP280;16845;48.670;9.000;2024-01-15T06:03:53;94289.28;;;1.32
30001;BMP280;16845;48.670;9.000;2024-01-15T06:06:21;94288.75;;;1.12
30001;BMP280;16845;48.670;9.000;2024-01-15T06:08:48;94286.47;;;0.97
30001;BMP280;16845;48.670;9.000;2024-01-15T06:11:14;94285.13;;;1.34
30001;BMP280;16845;48.670;9.000;2024-01-15T06:13:41;94287.84;;;1.19
30001;BMP280;16845;48.670;9.000;2024-01-15T06:16:13;94290.00;;;1.40
30001;BMP280;16845;48.670;9.000;2024-01-15T06:18:40;94289.78;;;0.96
30001;BMP280;16845;48.670;9.000;2024-01-15T06:21:06;94287.66;;;1.29
30001;BMP280;16845;48.670;9.000;2024-01-15T06:23:34;94283.94;;;1.03
30001;BMP280;16845;48.670;9.000;2024-01-15T06:26:01;94282.22;;;1.06
30001;BMP280;16845;48.670;9.000;2024-01-15T06:28:27;94282.00;;;0.59
30001;BMP280;16845;48.670;9.000;2024-01-15T06:30:54;94280.13;;;0.78
30001;BMP280;16845;48.670;9.000;2024-01-15T06:33:20;94276.13;;;0.68
30001;BMP280;16845;48.670;9.000;2024-01-15T06:35:47;94282.81;;;0.60
30001;BMP280;16845;48.670;9.000;2024-01-15T06:38:14;94286.41;;;1.01
30001;BMP280;16845;48.670;9.000;2024-01-15T06:40:41;94291.56;;;0.83
30001;BMP280;16845;48.670;9.000;2024-01-15T06:43:08;94279.00;;;1.00
30001;BMP280;16845;48.670;9.000;2024-01-15T06:45:34;94278.09;;;1.08
30001;BMP280;16845;48.670;9.000;2024-01-15T06:48:01;94270.34;;;0.70
30001;BMP280;16845;48.670;9.000;2024-01-15T06:50:28;94264.41;;;0.85
30001;BMP280;16845;48.670;9.000;2024-01-15T06:52:54;94270.22;;;0.79
30001;BMP280;16845;48.670;9.000;2024-01-15T06:55:21;94268.66;;;0.72
30001;BMP280;16845;48.670;9.000;2024-01-15T06:57:48;94263.34;;;1.02
30001;BMP280;16845;48.670;9.000;2024-01-15T07:00:16;94270.06;;;0.91
30001;BMP280;16845;48.670;9.000;2024-01-15T07:02:42;94269.41;;;0.79
30001;BMP280;16845;48.670;9.000;2024-01-15T07:05:09;94267.66;;;0.87
30001;BMP280;16845;48.670;9.000;2024-01-15T07:07:36;94259.34;;;0.92
30001;BMP280;16845;48.670;9.000;2024-01-15T07:10:03;94261.94;;;0.85
30001;BMP280;16845;48.670;9.000;2024-01-15T07:12:30;94260.88;;;1.02
30001;BMP280;16845;48.670;9.000;2024-01-15T07:14:58;94268.50;;;0.84
30001;BMP280;16845;48.670;9.000;2024-01-15T07:17:25;94263.06;;;0.60
30001;BMP280;16845;48.670;9.000;2024-01-15T07:19:51;94266.97;;;0.76
30001;BMP280;16845;48.670;9.000;2024-01-15T07:22:18;94268.41;;;0.93
30001;BMP280;16845;48.670;9.000;2024-01-15T07:24:45;94267.41;;;1.06
30001;BMP280;16845;48.670;9.000;2024-01-15T07:27:11;94265.75;;;1.05
30001;BMP280;16845;48.670;9.000;2024-01-15T07:29:38;94260.94;;;0.96
30001;BMP280;16845;48.670;9.000;2024-01-15T07:32:06;94263.34;;;1.01
30001;BMP280;16845;48.670;9.000;2024-01-15T07:34:32;94264.06;;;1.09
30001;BMP280;16845;48.670;9.000;2024-01-15T07:36:59;94264.56;;;1.32
30001;BMP280;16845;48.670;9.000;2024-01-15T07:39:26;94264.91;;;1.09
30001;BMP280;16845;48.670;9.000;2024-01-15T07:41:53;94248.91;;;1.34
30001;BMP280;16845;48.670;9.000;2024-01-15T07:44:19;94251.44;;;1.28
30001;BMP280;16845;48.670;9.000;2024-01-15T07:46:46;94262.69;;;1.49
30001;BMP280;16845;48.670;9.000;2024-01-15T07:49:14;94263.16;;;1.16
30001;BMP280;16845;48.670;9.000;2024-01-15T07:51:40;94268.91;;;1.16
30001;BMP280;16845;48.670;9.000;2024-01-15T07:54:07;94255.41;;;1.38
30001;BMP280;16845;48.670;9.000;2024-01-15T07:56:33;94258.75;;;1.36
30001;BMP280;16845;48.670;9.000;2024-01-15T07:59:00;94258.84;;;1.30
30001;BMP280;16845;48.670;9.000;2024-01-15T08:01:27;94251.44;;;1.28
30001;BMP280;16845;48.670;9.000;2024-01-15T08:03:53;94257.75;;;1.49
30001;BMP280;16845;48.670;9.000;2024-01-15T08:06:21;94261.41;;;1.77
30001;BMP280;16845;48.670;9.000;2024-01-15T08:08:48;94258.22;;;1.72
30001;BMP280;16845;48.670;9.000;2024-01-15T08:11:14;94256.94;;;1.47
30001;BMP280;16845;48.670;9.000;2024-01-15T08:13:41;94262.25;;;1.76
30001;BMP280;16845;48.670;9.000;2024-01-15T08:16:07;94259.53;;;1.91
30001;BMP280;16845;48.670;9.000;2024-01-15T08:18:34;94264.41;;;1.95
30001;BMP280;16845;48.670;9.000;2024-01-15T08:21:01;94263.19;;;1.69
30001;BMP280;16845;48.670;9.000;2024-01-15T08:23:29;94260.00;;;2.12
30001;BMP280;16845;48.670;9.000;2024-01-15T08:25:55;94252.03;;;1.95
30001;BMP280;16845;48.670;9.000;2024-01-15T08:28:22;94256.22;;;1.92
30001;BMP280;16845;48.670;9.000;2024-01-15T08:30:48;94246.84;;;2.10
30001;BMP280;16845;48.670;9.000;2024-01-15T08:33:15;94250.22;;;2.05
30001;BMP280;16845;48.670;9.000;2024-01-15T08:35:48;94255.53;;;1.84
30001;BMP280;16845;48.670;9.000;2024-01-15T08:38:14;94255.28;;;1.97
30001;BMP280;16845;48.670;9.000;2024-01-15T08:40:42;94242.53;;;2.20
30001;BMP280;16845;48.670;9.000;2024-01-15T08:43:09;94231.72;;;2.23
30001;BMP280;16845;48.670;9.000;2024-01-15T08:45:35;94239.44;;;2.09
30001;BMP280;16845;48.670;9.000;2024-01-15T08:48:02;94234.84;;;1.88
30001;BMP280;16845;48.670;9.000;2024-01-15T08:50:41;94240.50;;;1.96
30001;BMP280;16845;48.670;9.000;2024-01-15T08:53:08;94249.13;;;2.21
30001;BMP280;16845;48.670;9.000;2024-01-15T08:55:34;94267.97;;;2.28
30001;BMP280;16845;48.670;9.000;2024-01-15T08:58:02;94262.66;;;2.47
30001;BMP280;16845;48.670;9.000;2024-01-15T09:00:29;94257.16;;;2.31
30001;BMP280;16845;48.670;9.000;2024-01-15T09:02:56;94249.56;;;2.40
30001;BMP280;16845;48.670;9.000;2024-01-15T09:05:22;94246.34;;;2.35
30001;BMP280;16845;48.670;9.000;2024-01-15T09:07:49;94239.84;;;2.31
30001;BMP280;16845;48.670;9.000;2024-01-15T09:10:16;94241.94;;;2.51
30001;BMP280;16845;48.670;9.000;2024-01-15T09:12:42;94229.53;;;2.09
30001;BMP280;16845;48.670;9.000;2024-01-15T09:15:10;94222.03;;;2.55
30001;BMP280;16845;48.670;9.000;2024-01-15T09:17:37;94221.78;;;2.67
30001;BMP280;16845;48.670;9.000;2024-01-15T09:20:04;94226.59;;;2.34
30001;BMP280;16845;48.670;9.000;2024-01-15T09:22:31;94224.06;;;2.37
30001;BMP280;16845;48.670;9.000;2024-01-15T09:24:58;94228.63;;;2.56
30001;BMP280;16845;48.670;9.000;2024-01-15T09:27:25;94230.41;;;2.48
30001;BMP280;16845;48.670;9.000;2024-01-15T09:29:51;94210.25;;;2.68
30001;BMP280;16845;48.670;9.000;2024-01-15T09:32:19;94197.69;;;2.75
30001;BMP280;16845;48.670;9.000;2024-01-15T09:34:46;94197.78;;;2.71
30001;BMP280;16845;48.670;9.000;2024-01-15T09:37:13;94203.69;;;2.65
30001;BMP280;16845;48.670;9.000;2024-01-15T09:39:57;94197.84;;;3.06
30001;BMP280;16845;48.670;9.000;2024-01-15T09:42:24;94211.19;;;2.62
30001;BMP280;16845;48.670;9.000;2024-01-15T09:44:51;94207.97;;;2.57
30001;BMP280;16845;48.670;9.000;2024-01-15T09:47:20;94204.88;;;2.86
30001;BMP280;16845;48.670;9.000;2024-01-15T09:49:47;94209.66;;;2.54
30001;BMP280;16845;48.670;9.000;2024-01-15T09:52:14;94214.78;;;2.87
30001;BMP280;16845;48.670;9.000;2024-01-15T09:54:43;94214.34;;;3.07
30001;BMP280;16845;48.670;9.000;2024-01-15T09:57:13;94212.47;;;3.16
30001;BMP280;16845;48.670;9.000;2024-01-15T09:59:41;94221.88;;;2.64
30001;BMP280;16845;48.670;9.000;2024-01-15T10:02:09;94202.47;;;2.84
30001;BMP280;16845;48.670;9.000;2024-01-15T10:04:40;94201.81;;;2.75
30001;BMP280;16845;48.670;9.000;2024-01-15T10:07:08;94199.13;;;2.85
30001;BMP280;16845;48.670;9.000;2024-01-15T10:09:35;94190.63;;;2.57
30001;BMP280;16845;48.670;9.000;2024-01-15T10:12:02;94200.63;;;2.53
30001;BMP280;16845;48.670;9.000;2024-01-15T10:14:29;94195.03;;;2.84
30001;BMP280;16845;48.670;9.000;2024-01-15T10:16:56;94194.69;;;2.61
30001;BMP280;16845;48.670;9.000;2024-01-15T10:19:23;94199.22;;;2.41
30001;BMP280;16845;48.670;9.000;2024-01-15T10:21:51;94188.78;;;3.05
30001;BMP280;16845;48.670;9.000;2024-01-15T10:24:18;94194.47;;;2.70
30001;BMP280;16845;48.670;9.000;2024-01-15T10:26:44;94187.91;;;3.07
30001;BMP280;16845;48.670;9.000;2024-01-15T10:29:11;94191.75;;;3.20
30001;BMP280;16845;48.670;9.000;2024-01-15T10:31:37;94196.31;;;3.00
30001;BMP280;16845;48.670;9.000;2024-01-15T10:34:11;94190.56;;;3.35
30001;BMP280;16845;48.670;9.000;2024-01-15T10:36:39;94190.44;;;2.66
30001;BMP280;16845;48.670;9.000;2024-01-15T10:39:07;94174.00;;;3.02
30001;BMP280;16845;48.670;9.000;2024-01-15T10:41:34;94178.53;;;3.20
30001;BMP280;16845;48.670;9.000;2024-01-15T10:44:00;94164.22;;;2.94
30001;BMP280;16845;48.670;9.000;2024-01-15T10:46:28;94179.06;;;3.32
30001;BMP280;16845;48.670;9.000;2024-01-15T10:48:55;94173.91;;;3.05
30001;BMP280;16845;48.670;9.000;2024-01-15T10:51:22;94174.59;;;3.11
30001;BMP280;16845;48.670;9.000;2024-01-15T10:53:50;94181.31;;;3.06
30001;BMP280;16845;48.670;9.000;2024-01-15T10:56:18;94168.50;;;3.24
30001;BMP280;16845;48.670;9.000;2024-01-15T10:58:45;94176.03;;;3.21
30001;BMP280;16845;48.670;9.000;2024-01-15T11:01:12;94175.47;;;3.09
30001;BMP280;16845;48.670;9.000;2024-01-15T11:03:39;94177.06;;;3.13
30001;BMP280;16845;48.670;9.000;2024-01-15T11:06:16;94183.66;;;3.12
30001;BMP280;16845;48.670;9.000;2024-01-15T11:08:42;94176.84;;;2.85
30001;BMP280;16845;48.670;9.000;2024-01-15T11:11:09;94166.28;;;2.76
30001;BMP280;16845;48.670;9.000;2024-01-15T11:13:45;94164.06;;;2.64
30001;BMP280;16845;48.670;9.000;2024-01-15T11:16:14;94165.59;;;2.30
30001;BMP280;16845;48.670;9.000;2024-01-15T11:18:42;94173.09;;;2.25
30001;BMP280;16845;48.670;9.000;2024-01-15T11:21:25;94162.72;;;2.49
30001;BMP280;16845;48.670;9.000;2024-01-15T11:23:53;94154.78;;;2.73
30001;BMP280;16845;48.670;9.000;2024-01-15T11:26:43;94162.31;;;3.05
30001;BMP280;16845;48.670;9.000;2024-01-15T11:29:30;94149.28;;;2.61
30001;BMP280;16845;48.670;9.000;2024-01-15T11:31:59;94155.06;;;2.61
30001;BMP280;16845;48.670;9.000;2024-01-15T11:34:51;94155.84;;;2.63
30001;BMP280;16845;48.670;9.000;2024-01-15T11:37:19;94150.88;;;2.63
30001;BMP280;16845;48.670;9.000;2024-01-15T11:39:46;94167.78;;;2.45
30001;BMP280;16845;48.670;9.000;2024-01-15T11:42:13;94151.50;;;2.71
30001;BMP280;16845;48.670;9.000;2024-01-15T11:44:42;94142.91;;;2.49
30001;BMP280;16845;48.670;9.000;2024-01-15T11:47:09;94150.47;;;2.81
30001;BMP280;16845;48.670;9.000;2024-01-15T11:50:05;94151.44;;;3.12
30001;BMP280;16845;48.670;9.000;2024-01-15T11:52:33;94167.66;;;2.89
30001;BMP280;16845;48.670;9.000;2024-01-15T11:55:11;94162.22;;;2.73
30001;BMP280;16845;48.670;9.000;2024-01-15T11:57:42;94172.53;;;2.54
30001;BMP280;16845;48.670;9.000;2024-01-15T12:00:12;94178.50;;;2.44
30001;BMP280;16845;48.670;9.000;2024-01-15T12:02:40;94172.50;;;2.55
30001;BMP280;16845;48.670;9.000;2024-01-15T12:05:06;94177.00;;;3.14
30001;BMP280;16845;48.670;9.000;2024-01-15T12:07:33;94169.47;;;3.19
30001;BMP280;16845;48.670;9.000;2024-01-15T12:10:00;94164.13;;;2.62
30001;BMP280;16845;48.670;9.000;2024-01-15T12:12:33;94177.06;;;2.34
30001;BMP280;16845;48.670;9.000;2024-01-15T12:15:03;94170.03;;;2.55
30001;BMP280;16845;48.670;9.000;2024-01-15T12:17:31;94167.22;;;2.70
30001;BMP280;16845;48.670;9.000;2024-01-15T12:19:57;94168.66;;;2.80
30001;BMP280;16845;48.670;9.000;2024-01-15T12:22:24;94172.56;;;2.52
30001;BMP280;16845;48.670;9.000;2024-01-15T12:24:51;94170.47;;;2.72
30001;BMP280;16845;48.670;9.000;2024-01-15T12:27:17;94178.03;;;2.25
30001;BMP280;16845;48.670;9.000;2024-01-15T12:29:44;94157.31;;;2.70
30001;BMP280;16845;48.670;9.000;2024-01-15T12:32:11;94163.31;;;2.60
30001;BMP280;16845;48.670;9.000;2024-01-15T12:34:39;94162.16;;;2.76
30001;BMP280;16845;48.670;9.000;2024-01-15T12:37:06;94163.63;;;2.83
30001;BMP280;16845;48.670;9.000;2024-01-15T12:39:34;94168.94;;;2.68
30001;BMP280;16845;48.670;9.000;2024-01-15T12:42:00;94176.25;;;2.74
30001;BMP280;16845;48.670;9.000;2024-01-15T12:44:27;94184.72;;;2.63
30001;BMP280;16845;48.670;9.000;2024-01-15T12:46:54;94179.34;;;2.84
30001;BMP280;16845;48.670;9.000;2024-01-15T12:49:21;94188.84;;;2.23
30001;BMP280;16845;48.670;9.000;2024-01-15T12:51:53;94184.28;;;2.44
30001;BMP280;16845;48.670;9.000;2024-01-15T12:54:20;94187.56;;;2.03
30001;BMP280;16845;48.670;9.000;2024-01-15T12:56:46;94191.53;;;2.53
30001;BMP280;16845;48.670;9.000;2024-01-15T12:59:13;94188.31;;;2.48
30001;BMP280;16845;48.670;9.000;2024-01-15T13:01:39;94181.50;;;2.19
30001;BMP280;16845;48.670;9.000;2024-01-15T13:04:07;94170.56;;;2.69
30001;BMP280;16845;48.670;9.000;2024-01-15T13:06:33;94172.56;;;2.52
30001;BMP280;16845;48.670;9.000;2024-01-15T13:09:02;94188.69;;;2.30
30001;BMP280;16845;48.670;9.000;2024-01-15T13:11:28;94192.63;;;2.40
30001;BMP280;16845;48.670;9.000;2024-01-15T13:13:55;94190.00;;;2.46
30001;BMP280;16845;48.670;9.000;2024-01-15T13:16:21;94189.06;;;2.53
30001;BMP280;16845;48.670;9.000;2024-01-15T13:18:51;94192.38;;;2.52
30001;BMP280;16845;48.670;9.000;2024-01-15T13:21:18;94191.09;;;2.33
30001;BMP280;16845;48.670;9.000;2024-01-15T13:23:44;94195.03;;;2.45
30001;BMP280;16845;48.670;9.000;2024-01-15T13:26:12;94189.13;;;2.50
30001;BMP280;16845;48.670;9.000;2024-01-15T13:28:39;94189.84;;;2.54
30001;BMP280;16845;48.670;9.000;2024-01-15T13:31:05;94189.25;;;2.84
30001;BMP280;16845;48.670;9.000;2024-01-15T13:33:32;94193.88;;;2.99
30001;BMP280;16845;48.670;9.000;2024-01-15T13:35:58;94189.94;;;2.90
30001;BMP280;16845;48.670;9.000;2024-01-15T13:38:25;94208.22;;;2.44
30001;BMP280;16845;48.670;9.000;2024-01-15T13:40:51;94203.47;;;2.33
30001;BMP280;16845;48.670;9.000;2024-01-15T13:43:19;94198.38;;;2.41
30001;BMP280;16845;48.670;9.000;2024-01-15T13:45:46;94207.06;;;2.61
30001;BMP280;16845;48.670;9.000;2024-01-15T13:48:12;94200.69;;;2.48
30001;BMP280;16845;48.670;9.000;2024-01-15T13:50:39;94209.72;;;2.52
30001;BMP280;16845;48.670;9.000;2024-01-15T13:53:05;94211.19;;;2.62
30001;BMP280;16845;48.670;9.000;2024-01-15T13:55:32;94215.47;;;2.54
30001;BMP280;16845;48.670;9.000;2024-01-15T13:57:59;94212.13;;;2.55
30001;BMP280;16845;48.670;9.000;2024-01-15T14:00:27;94208.00;;;2.56
30001;BMP280;16845;48.670;9.000;2024-01-15T14:02:54;94214.72;;;2.49
30001;BMP280;16845;48.670;9.000;2024-01-15T14:05:20;94229.91;;;2.33
30001;BMP280;16845;48.670;9.000;2024-01-15T14:07:47;94223.34;;;2.71
30001;BMP280;16845;48.670;9.000;2024-01-15T14:10:13;94237.06;;;2.46
30001;BMP280;16845;48.670;9.000;2024-01-15T14:12:40;94231.94;;;2.55
30001;BMP280;16845;48.670;9.000;2024-01-15T14:15:07;94234.19;;;2.67
30001;BMP280;16845;48.670;9.000;2024-01-15T14:17:35;94233.59;;;2.55
30001;BMP280;16845;48.670;9.000;2024-01-15T14:20:03;94242.22;;;2.78
30001;BMP280;16845;48.670;9.000;2024-01-15T14:22:29;94240.38;;;2.45